Time;durP1;ratioP1;P1;durP2;ratioP2;P2;SDS_P1;SDS_P2;PMS_P1;PMS_P2;Temp;Humidity;BMP_temperature;BMP_pressure;BME280_temperature;BME280_humidity;BME280_pressure;Samples;Min_cycle;Max_cycle;Signal;HPM_P1;HPM_P2
2021/01/18 00:00:45;;;;;;;19.50;5.97;;;4.30;99.00;;;;;;4984383;28;20091;-42
2021/01/18 00:03:11;;;;;;;12.32;4.60;;;4.30;99.00;;;;;;4984744;28;20482;-42
2021/01/18 00:05:36;;;;;;;12.73;4.93;;;4.30;99.00;;;;;;4984768;28;20126;-41
2021/01/18 00:08:02;;;;;;;11.82;5.07;;;4.30;99.10;;;;;;4984373;28;20143;-42
2021/01/18 00:10:27;;;;;;;13.25;5.80;;;4.40;99.20;;;;;;4984977;28;20382;-42
2021/01/18 00:12:55;;;;;;;16.83;6.50;;;4.40;99.10;;;;;;4985597;28;20457;-42
2021/01/18 00:15:23;;;;;;;14.82;5.05;;;4.40;99.10;;;;;;4983509;28;20034;-41
2021/01/18 00:17:49;;;;;;;11.55;4.95;;;4.40;98.90;;;;;;4985205;28;20138;-42
2021/01/18 00:20:16;;;;;;;12.23;4.68;;;4.40;98.80;;;;;;4984243;28;20034;-43
2021/01/18 00:22:43;;;;;;;14.25;5.30;;;4.30;98.80;;;;;;4984513;28;20125;-46
2021/01/18 00:25:12;;;;;;;11.77;5.10;;;4.20;98.80;;;;;;4984548;28;20030;-42
2021/01/18 00:27:38;;;;;;;12.02;4.60;;;4.20;98.80;;;;;;4984601;28;20462;-44
2021/01/18 00:30:12;;;;;;;10.68;5.05;;;4.20;98.90;;;;;;4983797;28;20087;-44
2021/01/18 00:32:39;;;;;;;15.57;5.40;;;4.10;98.90;;;;;;4985008;28;20038;-43
2021/01/18 00:35:09;;;;;;;11.23;5.18;;;4.10;99.00;;;;;;4983962;28;20030;-42
2021/01/18 00:37:55;;;;;;;18.58;7.43;;;4.10;99.00;;;;;;4984375;28;20355;-44
2021/01/18 00:40:23;;;;;;;19.00;6.57;;;4.20;99.10;;;;;;4983354;28;20369;-42
2021/01/18 00:42:49;;;;;;;15.90;5.90;;;4.20;99.20;;;;;;4984043;28;20038;-42
2021/01/18 00:45:16;;;;;;;12.02;5.72;;;4.20;99.20;;;;;;4984268;28;20033;-43
2021/01/18 00:47:53;;;;;;;19.88;7.40;;;4.30;99.20;;;;;;4984569;28;20057;-43
2021/01/18 00:50:24;;;;;;;20.35;7.25;;;4.30;99.10;;;;;;4982976;28;20105;-43
2021/01/18 00:52:52;;;;;;;14.73;6.75;;;4.30;99.10;;;;;;4985050;28;20038;-42
2021/01/18 00:55:20;;;;;;;14.88;6.85;;;4.30;99.00;;;;;;4983645;28;20022;-42
2021/01/18 00:57:47;;;;;;;13.27;5.95;;;4.40;99.00;;;;;;4983674;28;20433;-42
2021/01/18 01:00:18;;;;;;;17.13;5.93;;;4.40;99.00;;;;;;4985814;28;20030;-43
2021/01/18 01:02:45;;;;;;;10.68;5.20;;;4.40;99.00;;;;;;4988234;28;20042;-43
2021/01/18 01:05:13;;;;;;;13.35;6.20;;;4.40;99.00;;;;;;4987340;28;20026;-43
2021/01/18 01:07:41;;;;;;;18.10;6.57;;;4.40;98.90;;;;;;4987861;28;20069;-42
2021/01/18 01:10:08;;;;;;;16.40;6.38;;;4.40;98.90;;;;;;4987596;28;20031;-42
2021/01/18 01:12:33;;;;;;;14.52;6.18;;;4.30;98.90;;;;;;4987625;28;20481;-43
2021/01/18 01:15:04;;;;;;;11.77;5.90;;;4.40;98.90;;;;;;4988084;28;20029;-42
2021/01/18 01:17:30;;;;;;;13.77;5.45;;;4.40;98.90;;;;;;4987234;28;20482;-44
2021/01/18 01:19:55;;;;;;;14.05;5.40;;;4.30;98.80;;;;;;4987999;28;20037;-42
2021/01/18 01:22:21;;;;;;;9.25;4.95;;;4.20;98.70;;;;;;4987127;28;20034;-42
2021/01/18 01:24:46;;;;;;;9.75;4.15;;;4.20;98.70;;;;;;4987849;28;20037;-42
2021/01/18 01:27:12;;;;;;;11.48;4.90;;;4.10;98.70;;;;;;4987557;28;20041;-42
2021/01/18 01:29:37;;;;;;;10.32;4.90;;;4.00;98.70;;;;;;4987899;28;20141;-41
2021/01/18 01:32:03;;;;;;;12.20;5.00;;;3.90;98.70;;;;;;4987161;28;20062;-42
2021/01/18 01:34:29;;;;;;;9.70;4.43;;;3.90;98.90;;;;;;4987616;28;20294;-42
2021/01/18 01:36:54;;;;;;;12.68;5.22;;;3.90;99.00;;;;;;4987296;28;20130;-42
2021/01/18 01:39:20;;;;;;;12.38;5.47;;;4.00;99.00;;;;;;4987010;28;20030;-43
2021/01/18 01:41:46;;;;;;;14.98;5.70;;;4.00;99.00;;;;;;4987522;28;20045;-41
2021/01/18 01:44:11;;;;;;;15.32;5.93;;;4.00;99.00;;;;;;4987455;28;20037;-43
2021/01/18 01:46:38;;;;;;;16.67;5.78;;;4.00;98.90;;;;;;4987141;28;20029;-42
2021/01/18 01:49:03;;;;;;;16.15;6.47;;;3.90;98.80;;;;;;4987340;28;20042;-42
2021/01/18 01:51:29;;;;;;;13.02;6.80;;;3.90;98.80;;;;;;4986874;28;20044;-43
2021/01/18 01:53:57;;;;;;;12.43;6.05;;;3.80;98.90;;;;;;4987482;28;20098;-42
2021/01/18 01:56:23;;;;;;;11.18;5.57;;;3.80;98.90;;;;;;4987307;28;20112;-42
2021/01/18 01:58:53;;;;;;;11.25;5.63;;;3.70;98.90;;;;;;4987218;28;20489;-42
2021/01/18 02:01:24;;;;;;;9.85;5.60;;;3.70;98.90;;;;;;4986619;28;20397;-42
2021/01/18 02:03:53;;;;;;;13.20;6.28;;;3.70;98.90;;;;;;4987244;28;20074;-41
2021/01/18 02:06:19;;;;;;;14.98;6.32;;;3.70;98.90;;;;;;4986753;28;20414;-42
2021/01/18 02:08:45;;;;;;;14.13;6.47;;;3.60;98.90;;;;;;4986992;28;20030;-42
2021/01/18 02:11:11;;;;;;;9.15;5.00;;;3.60;98.90;;;;;;4985860;28;20049;-42
2021/01/18 02:13:51;;;;;;;13.48;5.53;;;3.50;98.90;;;;;;4986753;28;20485;-42
2021/01/18 02:16:25;;;;;;;16.23;6.65;;;3.50;98.90;;;;;;4986216;28;20779;-43
2021/01/18 02:19:01;;;;;;;10.98;5.90;;;3.50;99.00;;;;;;4987210;28;20056;-43
2021/01/18 02:21:46;;;;;;;19.60;6.07;;;3.50;99.00;;;;;;4986391;28;20069;-41
2021/01/18 02:24:30;;;;;;;14.43;6.28;;;3.40;99.00;;;;;;4986933;28;20104;-42
2021/01/18 02:27:14;;;;;;;11.23;5.20;;;3.40;99.00;;;;;;4967800;28;20414;-42
2021/01/18 02:30:16;;;;;;;12.90;6.82;;;3.40;99.10;;;;;;4984835;28;20026;-42
2021/01/18 02:33:06;;;;;;;11.55;5.93;;;3.50;99.20;;;;;;4986996;28;20082;-43
2021/01/18 02:36:00;;;;;;;12.65;6.13;;;3.50;99.20;;;;;;4985084;28;20030;-43
2021/01/18 02:38:31;;;;;;;15.43;6.45;;;3.50;99.10;;;;;;4986344;28;20492;-41
2021/01/18 02:41:00;;;;;;;17.33;7.03;;;3.50;99.10;;;;;;4976475;28;20031;-42
2021/01/18 02:43:35;;;;;;;18.48;7.20;;;3.40;99.10;;;;;;4985932;28;20037;-43
2021/01/18 02:46:03;;;;;;;20.60;7.28;;;3.50;99.10;;;;;;4986502;28;20485;-42
2021/01/18 02:48:30;;;;;;;14.00;7.47;;;3.50;99.20;;;;;;4986144;28;20031;-42
2021/01/18 02:51:01;;;;;;;17.08;8.43;;;3.50;99.30;;;;;;4986836;28;20411;-43
2021/01/18 02:53:27;;;;;;;13.80;7.05;;;3.50;99.30;;;;;;4986042;28;20109;-43
2021/01/18 02:55:56;;;;;;;21.25;8.02;;;3.60;99.30;;;;;;4986028;28;20030;-42
2021/01/18 02:58:23;;;;;;;16.25;7.90;;;3.60;99.20;;;;;;4986161;28;20041;-44
2021/01/18 03:01:24;;;;;;;17.85;7.65;;;3.60;99.10;;;;;;4986567;28;20074;-43
2021/01/18 03:04:06;;;;;;;16.10;7.35;;;3.50;99.00;;;;;;4985695;28;20081;-43
2021/01/18 03:06:57;;;;;;;14.30;6.45;;;3.50;99.00;;;;;;4984515;28;20045;-42
2021/01/18 03:09:31;;;;;;;15.85;6.60;;;3.40;99.00;;;;;;4978410;28;20039;-42
2021/01/18 03:12:03;;;;;;;14.60;7.40;;;3.40;99.00;;;;;;4975656;28;20030;-43
2021/01/18 03:14:32;;;;;;;17.10;7.70;;;3.40;99.10;;;;;;4985657;28;20029;-43
2021/01/18 03:16:58;;;;;;;16.13;6.97;;;3.40;99.10;;;;;;4985121;28;20050;-43
2021/01/18 03:19:50;;;;;;;13.85;7.35;;;3.30;99.00;;;;;;4985164;28;20429;-42
2021/01/18 03:22:24;;;;;;;12.97;7.50;;;3.30;99.00;;;;;;4974178;28;20057;-42
2021/01/18 03:24:50;;;;;;;12.77;6.20;;;3.20;99.00;;;;;;4985545;28;20022;-42
2021/01/18 03:27:16;;;;;;;13.82;6.80;;;3.20;99.10;;;;;;4985148;28;20456;-42
2021/01/18 03:29:41;;;;;;;13.48;6.57;;;3.10;99.10;;;;;;4985986;28;20034;-43
2021/01/18 03:32:09;;;;;;;14.23;7.05;;;3.20;99.10;;;;;;4984879;28;20022;-43
2021/01/18 03:34:35;;;;;;;14.00;7.22;;;3.10;99.10;;;;;;4985431;28;20101;-42
2021/01/18 03:37:00;;;;;;;13.98;7.32;;;3.10;99.10;;;;;;4985462;28;20514;-43
2021/01/18 03:39:26;;;;;;;13.98;6.70;;;3.10;99.10;;;;;;4984887;28;20041;-42
2021/01/18 03:41:51;;;;;;;16.23;7.30;;;3.10;99.20;;;;;;4985144;28;20038;-42
2021/01/18 03:44:17;;;;;;;10.63;6.45;;;3.10;99.10;;;;;;4985255;28;20387;-40
2021/01/18 03:46:45;;;;;;;12.93;7.75;;;3.00;99.10;;;;;;4984697;28;20027;-43
2021/01/18 03:49:12;;;;;;;13.95;6.57;;;3.00;99.10;;;;;;4984833;28;20022;-42
2021/01/18 03:51:38;;;;;;;14.65;6.40;;;3.00;99.10;;;;;;4985057;28;20571;-42
2021/01/18 03:54:03;;;;;;;15.35;7.80;;;3.00;99.10;;;;;;4984337;28;20160;-42
2021/01/18 03:56:29;;;;;;;15.40;7.47;;;2.90;99.10;;;;;;4984612;28;20026;-42
2021/01/18 03:58:54;;;;;;;14.57;7.53;;;2.90;99.10;;;;;;4985154;28;20030;-42
2021/01/18 04:01:20;;;;;;;14.32;7.47;;;2.80;99.10;;;;;;4984382;28;20085;-43
2021/01/18 04:03:45;;;;;;;16.23;8.45;;;2.80;99.10;;;;;;4985105;28;20102;-44
2021/01/18 04:06:11;;;;;;;11.85;7.05;;;2.80;99.20;;;;;;4984394;28;20023;-42
2021/01/18 04:08:36;;;;;;;13.50;7.15;;;2.80;99.30;;;;;;4984727;28;20501;-42
2021/01/18 04:11:02;;;;;;;18.45;8.23;;;2.80;99.30;;;;;;4984463;28;20427;-43
2021/01/18 04:13:28;;;;;;;13.43;7.30;;;2.80;99.30;;;;;;4984418;28;20054;-43
2021/01/18 04:15:54;;;;;;;14.60;8.00;;;2.90;99.30;;;;;;4985110;28;20036;-43
2021/01/18 04:18:19;;;;;;;12.18;7.20;;;2.90;99.30;;;;;;4984162;28;20403;-42
2021/01/18 04:20:47;;;;;;;13.40;7.93;;;2.90;99.20;;;;;;4984848;28;20500;-44
2021/01/18 04:23:13;;;;;;;13.35;7.68;;;2.90;99.20;;;;;;4984132;28;20073;-41
2021/01/18 04:25:38;;;;;;;15.80;7.47;;;2.80;99.20;;;;;;4985075;28;20045;-45
2021/01/18 04:28:05;;;;;;;14.32;7.00;;;2.80;99.20;;;;;;4983914;28;20781;-42
2021/01/18 04:30:36;;;;;;;16.70;8.02;;;2.80;99.20;;;;;;4984971;28;20027;-41
2021/01/18 04:33:09;;;;;;;17.90;8.43;;;2.80;99.20;;;;;;4984263;28;20022;-41
2021/01/18 04:35:37;;;;;;;16.45;8.20;;;2.80;99.20;;;;;;4986190;28;20026;-42
2021/01/18 04:38:03;;;;;;;16.20;7.55;;;2.70;99.20;;;;;;4988274;28;20137;-42
2021/01/18 04:40:30;;;;;;;12.32;7.97;;;2.70;99.20;;;;;;4988270;28;20429;-43
2021/01/18 04:42:56;;;;;;;18.60;8.38;;;2.70;99.20;;;;;;4988209;28;20552;-42
2021/01/18 04:45:24;;;;;;;19.10;7.63;;;2.70;99.30;;;;;;4987797;28;20029;-43
2021/01/18 04:47:54;;;;;;;18.48;9.48;;;2.70;99.30;;;;;;4988341;28;20514;-42
2021/01/18 04:50:23;;;;;;;19.02;8.63;;;2.70;99.30;;;;;;4987403;28;20022;-43
2021/01/18 04:52:54;;;;;;;12.18;7.78;;;2.80;99.40;;;;;;4988090;28;20571;-43
2021/01/18 04:55:27;;;;;;;17.48;8.02;;;2.80;99.40;;;;;;4987583;28;20033;-43
2021/01/18 04:58:18;;;;;;;15.95;7.72;;;2.90;99.40;;;;;;4988673;28;20019;-42
2021/01/18 05:00:45;;;;;;;18.95;8.13;;;2.90;99.40;;;;;;4979256;28;20023;-42
2021/01/18 05:03:33;;;;;;;16.67;8.45;;;3.00;99.40;;;;;;4987540;28;20273;-42
2021/01/18 05:06:10;;;;;;;16.77;7.70;;;3.00;99.30;;;;;;4979453;28;20041;-42
2021/01/18 05:09:18;;;;;;;14.65;8.27;;;3.10;99.30;;;;;;4987474;28;20405;-41
2021/01/18 05:11:46;;;;;;;14.27;8.20;;;3.10;99.30;;;;;;4980308;28;20040;-43
2021/01/18 05:14:13;;;;;;;14.10;6.85;;;3.20;99.30;;;;;;4987835;28;20026;-42
2021/01/18 05:16:43;;;;;;;13.85;7.72;;;3.20;99.20;;;;;;4987510;28;20054;-42
2021/01/18 05:19:13;;;;;;;15.27;8.07;;;3.20;99.10;;;;;;4987532;28;20886;-41
2021/01/18 05:21:43;;;;;;;13.80;7.88;;;3.20;99.10;;;;;;4988112;28;20070;-41
2021/01/18 05:24:09;;;;;;;11.88;7.53;;;3.20;99.20;;;;;;4987422;28;20022;-41
2021/01/18 05:26:41;;;;;;;13.13;7.50;;;3.20;99.20;;;;;;4987264;28;20533;-43
2021/01/18 05:29:07;;;;;;;14.77;6.35;;;3.20;99.40;;;;;;4987760;28;20031;-42
2021/01/18 05:31:34;;;;;;;11.18;6.45;;;3.20;99.10;;;;;;4987553;28;20089;-41
2021/01/18 05:34:11;;;;;;;17.40;7.97;;;3.20;99.10;;;;;;4987651;28;20134;-42
2021/01/18 05:36:48;;;;;;;14.77;7.70;;;3.30;99.40;;;;;;4987802;28;20036;-41
2021/01/18 05:39:31;;;;;;;14.65;8.05;;;3.30;99.20;;;;;;4986887;28;20026;-42
2021/01/18 05:41:56;;;;;;;14.73;7.78;;;3.40;99.10;;;;;;4976908;28;20120;-42
2021/01/18 05:44:36;;;;;;;13.68;7.82;;;3.40;99.10;;;;;;4986544;28;20077;-42
2021/01/18 05:47:14;;;;;;;12.65;7.70;;;3.40;99.00;;;;;;4987186;28;20022;-42
2021/01/18 05:49:45;;;;;;;13.38;7.88;;;3.40;99.00;;;;;;4987560;28;20022;-42
2021/01/18 05:52:32;;;;;;;13.13;8.52;;;3.40;99.00;;;;;;4986888;28;20026;-41
2021/01/18 05:55:16;;;;;;;13.85;8.05;;;3.50;99.00;;;;;;4986955;28;20037;-41
2021/01/18 05:57:50;;;;;;;15.63;8.80;;;3.50;99.00;;;;;;4978639;28;20031;-41
2021/01/18 06:00:37;;;;;;;15.20;7.80;;;3.50;99.00;;;;;;4986885;28;20049;-40
2021/01/18 06:03:08;;;;;;;15.18;7.68;;;3.50;99.00;;;;;;4986621;28;20590;-41
2021/01/18 06:05:36;;;;;;;12.93;8.15;;;3.60;98.90;;;;;;4986594;28;20034;-41
2021/01/18 06:08:16;;;;;;;17.27;7.88;;;3.60;98.90;;;;;;4987042;28;20038;-41
2021/01/18 06:10:43;;;;;;;17.00;9.30;;;3.60;98.90;;;;;;4987137;28;20026;-41
2021/01/18 06:13:28;;;;;;;20.95;8.68;;;3.60;98.90;;;;;;4986375;28;20477;-42
2021/01/18 06:15:59;;;;;;;17.05;9.05;;;3.70;98.90;;;;;;4986907;28;20042;-42
2021/01/18 06:18:26;;;;;;;20.40;10.15;;;3.60;98.80;;;;;;4986136;28;20050;-42
2021/01/18 06:20:57;;;;;;;19.95;10.43;;;3.60;98.80;;;;;;4986924;28;20354;-42
2021/01/18 06:23:22;;;;;;;17.38;9.38;;;3.60;98.80;;;;;;4986320;28;20049;-43
2021/01/18 06:25:52;;;;;;;15.23;8.38;;;3.60;98.80;;;;;;4986978;28;20031;-41
2021/01/18 06:28:35;;;;;;;17.50;9.05;;;3.60;98.80;;;;;;4985858;28;20025;-42
2021/01/18 06:31:02;;;;;;;20.75;9.02;;;3.60;98.80;;;;;;4986728;28;20059;-42
2021/01/18 06:33:34;;;;;;;16.75;9.27;;;3.50;98.80;;;;;;4986480;28;20468;-41
2021/01/18 06:36:20;;;;;;;15.05;8.90;;;3.60;98.80;;;;;;4986535;28;20025;-42
2021/01/18 06:39:07;;;;;;;21.52;9.00;;;3.60;98.90;;;;;;4986771;28;20034;-42
2021/01/18 06:41:35;;;;;;;15.07;8.82;;;3.60;98.80;;;;;;4986425;28;20388;-41
2021/01/18 06:44:01;;;;;;;17.75;8.82;;;3.60;98.80;;;;;;4976229;28;20449;-42
2021/01/18 06:46:32;;;;;;;17.08;8.88;;;3.60;98.80;;;;;;4986391;28;20466;-43
2021/01/18 06:48:58;;;;;;;14.98;8.20;;;3.70;98.80;;;;;;4985783;28;20150;-45
2021/01/18 06:51:26;;;;;;;16.52;8.50;;;3.60;98.80;;;;;;4976836;28;20114;-43
2021/01/18 06:53:57;;;;;;;14.68;8.68;;;3.60;98.80;;;;;;4987435;28;20864;-43
2021/01/18 06:56:22;;;;;;;21.27;8.38;;;3.60;98.80;;;;;;4984862;28;20141;-41
2021/01/18 06:59:26;;;;;;;21.30;8.75;;;3.60;98.80;;;;;;4983116;28;20117;-42
2021/01/18 07:02:06;;;;;;;18.55;8.48;;;3.60;98.80;;;;;;4984495;28;20134;-41
2021/01/18 07:04:44;;;;;;;24.40;9.25;;;3.60;98.70;;;;;;4985636;28;20041;-41
2021/01/18 07:07:19;;;;;;;17.80;8.13;;;3.60;98.70;;;;;;4985296;28;20023;-42
2021/01/18 07:09:50;;;;;;;23.85;10.02;;;3.60;98.80;;;;;;4984900;28;20134;-42
2021/01/18 07:12:19;;;;;;;20.77;9.30;;;3.60;98.80;;;;;;4984626;28;20034;-43
2021/01/18 07:14:49;;;;;;;23.77;10.80;;;3.70;98.80;;;;;;4986099;28;20030;-41
2021/01/18 07:17:15;;;;;;;24.35;11.93;;;3.70;98.80;;;;;;4983696;28;20062;-41
2021/01/18 07:19:49;;;;;;;19.88;10.20;;;3.70;98.80;;;;;;4985384;28;20038;-44
2021/01/18 07:22:46;;;;;;;18.27;10.18;;;3.70;98.80;;;;;;4985516;28;20073;-42
2021/01/18 07:25:12;;;;;;;20.27;10.00;;;3.70;98.80;;;;;;4984466;28;20104;-42
2021/01/18 07:27:46;;;;;;;22.40;10.70;;;3.80;98.80;;;;;;4985292;28;20062;-42
2021/01/18 07:30:12;;;;;;;20.33;9.98;;;3.70;98.70;;;;;;4982488;28;20076;-42
2021/01/18 07:32:40;;;;;;;21.20;10.18;;;3.80;98.70;;;;;;4985658;28;20023;-42
2021/01/18 07:35:06;;;;;;;19.55;10.57;;;3.80;98.80;;;;;;4984741;28;20125;-42
2021/01/18 07:37:41;;;;;;;17.40;9.13;;;3.80;98.80;;;;;;4984898;28;20042;-42
2021/01/18 07:40:13;;;;;;;15.88;9.63;;;3.80;98.70;;;;;;4985415;28;20022;-42
2021/01/18 07:42:41;;;;;;;17.73;9.23;;;3.80;98.70;;;;;;4985529;28;20054;-42
2021/01/18 07:45:16;;;;;;;21.67;10.52;;;3.80;98.70;;;;;;4985338;28;20128;-42
2021/01/18 07:47:54;;;;;;;28.58;12.13;;;3.80;98.70;;;;;;4985133;28;20054;-43
2021/01/18 07:50:58;;;;;;;26.13;13.50;;;3.80;98.80;;;;;;4984727;28;20470;-42
2021/01/18 07:53:30;;;;;;;23.33;12.00;;;3.80;98.80;;;;;;4963464;28;20048;-43
2021/01/18 07:56:02;;;;;;;28.80;13.52;;;3.80;98.80;;;;;;4985232;28;20049;-43
2021/01/18 07:58:30;;;;;;;20.52;11.20;;;3.80;98.80;;;;;;4984620;28;20497;-43
2021/01/18 08:01:07;;;;;;;25.02;11.70;;;3.90;98.80;;;;;;4985032;28;20023;-43
2021/01/18 08:03:32;;;;;;;19.65;10.98;;;3.90;98.80;;;;;;4985443;28;20042;-44
2021/01/18 08:06:07;;;;;;;19.85;11.20;;;3.90;98.80;;;;;;4984263;28;20476;-43
2021/01/18 08:08:33;;;;;;;21.83;11.63;;;4.00;98.80;;;;;;4985137;28;20042;-42
2021/01/18 08:11:06;;;;;;;25.80;13.00;;;4.00;98.80;;;;;;4985344;28;20026;-41
2021/01/18 08:13:40;;;;;;;16.90;11.52;;;4.00;98.80;;;;;;4984814;28;20643;-43
2021/01/18 08:16:33;;;;;;;22.20;11.48;;;4.10;98.80;;;;;;4984849;28;20085;-45
2021/01/18 08:19:14;;;;;;;20.33;10.57;;;4.10;98.70;;;;;;4974388;28;20050;-42
2021/01/18 08:21:45;;;;;;;22.27;10.90;;;4.10;98.70;;;;;;4984913;28;20134;-42
2021/01/18 08:24:35;;;;;;;22.48;10.68;;;4.10;98.70;;;;;;4984933;28;20041;-42
2021/01/18 08:27:02;;;;;;;26.73;11.90;;;4.20;98.70;;;;;;4983637;28;20081;-43
2021/01/18 08:29:40;;;;;;;22.40;12.35;;;4.20;98.70;;;;;;4984923;28;20486;-42
2021/01/18 08:32:20;;;;;;;23.40;12.10;;;4.20;98.70;;;;;;4983411;28;20101;-41
2021/01/18 08:34:57;;;;;;;24.38;11.98;;;4.20;98.70;;;;;;4984402;28;20035;-41
2021/01/18 08:37:23;;;;;;;26.90;11.55;;;4.20;98.70;;;;;;4984261;28;20116;-42
2021/01/18 08:39:57;;;;;;;20.88;11.90;;;4.20;98.70;;;;;;4985460;28;20041;-42
2021/01/18 08:42:36;;;;;;;22.80;12.23;;;4.30;98.70;;;;;;4983869;28;20041;-41
2021/01/18 08:45:11;;;;;;;24.95;11.20;;;4.30;98.60;;;;;;4984999;28;20120;-42
2021/01/18 08:47:39;;;;;;;27.17;12.40;;;4.30;98.60;;;;;;4983564;28;20034;-42
2021/01/18 08:50:19;;;;;;;19.77;12.35;;;4.40;98.70;;;;;;4984781;28;20030;-42
2021/01/18 08:52:46;;;;;;;24.02;10.93;;;4.40;98.70;;;;;;4983880;28;20026;-42
2021/01/18 08:55:30;;;;;;;23.15;11.25;;;4.40;98.60;;;;;;4984570;28;20027;-42
2021/01/18 08:58:00;;;;;;;20.27;11.15;;;4.50;98.70;;;;;;4984191;28;20084;-42
2021/01/18 09:00:45;;;;;;;20.38;11.05;;;4.50;98.60;;;;;;4984477;28;20022;-42
2021/01/18 09:03:16;;;;;;;25.92;12.63;;;4.60;98.70;;;;;;4983923;28;20699;-42
2021/01/18 09:05:42;;;;;;;26.75;12.15;;;4.60;98.60;;;;;;4984582;28;20026;-42
2021/01/18 09:08:08;;;;;;;26.67;13.48;;;4.60;98.70;;;;;;4984170;28;20029;-44
2021/01/18 09:10:34;;;;;;;20.70;11.45;;;4.70;98.70;;;;;;4984325;28;20042;-43
2021/01/18 09:13:06;;;;;;;24.48;13.65;;;4.70;98.70;;;;;;4982307;28;20021;-41
2021/01/18 09:15:33;;;;;;;30.27;14.02;;;4.80;98.70;;;;;;4984254;28;20390;-43
2021/01/18 09:18:08;;;;;;;24.10;13.05;;;4.80;98.70;;;;;;4984472;28;20054;-41
2021/01/18 09:20:42;;;;;;;30.70;13.23;;;4.90;98.70;;;;;;4985041;28;20083;-43
2021/01/18 09:23:09;;;;;;;27.30;13.15;;;4.90;98.60;;;;;;4987337;28;20038;-41
2021/01/18 09:25:36;;;;;;;29.45;14.57;;;4.90;98.60;;;;;;4987710;28;20061;-42
2021/01/18 09:28:12;;;;;;;28.10;14.13;;;4.90;98.60;;;;;;4988077;28;20041;-42
2021/01/18 09:30:40;;;;;;;22.55;13.20;;;5.00;98.60;;;;;;4987568;28;20030;-45
2021/01/18 09:33:08;;;;;;;25.55;13.10;;;5.00;98.60;;;;;;4987520;28;20392;-42
2021/01/18 09:35:36;;;;;;;27.20;14.13;;;5.00;98.60;;;;;;4987986;28;20045;-41
2021/01/18 09:38:03;;;;;;;27.08;13.73;;;5.10;98.60;;;;;;4987555;28;20449;-41
2021/01/18 09:40:29;;;;;;;26.33;14.45;;;5.00;98.50;;;;;;4988024;28;20026;-43
2021/01/18 09:42:56;;;;;;;25.35;14.55;;;5.10;98.60;;;;;;4988147;28;20105;-42
2021/01/18 09:45:23;;;;;;;24.08;13.80;;;5.10;98.50;;;;;;4986798;28;20030;-40
2021/01/18 09:47:50;;;;;;;24.33;13.18;;;5.10;98.50;;;;;;4987780;28;20488;-42
2021/01/18 09:50:17;;;;;;;29.10;13.57;;;5.10;98.60;;;;;;4987207;28;20413;-42
2021/01/18 09:52:45;;;;;;;24.55;13.38;;;5.10;98.60;;;;;;4987146;28;20490;-41
2021/01/18 09:55:34;;;;;;;26.77;13.95;;;5.10;98.60;;;;;;4987250;28;20026;-42
2021/01/18 09:58:17;;;;;;;28.08;13.73;;;5.20;98.60;;;;;;4987553;28;20101;-42
2021/01/18 10:00:44;;;;;;;26.08;13.45;;;5.20;98.60;;;;;;4982719;28;20176;-42
2021/01/18 10:03:10;;;;;;;23.05;12.82;;;5.30;98.60;;;;;;4985139;28;20129;-42
2021/01/18 10:05:40;;;;;;;24.02;13.05;;;5.30;98.60;;;;;;4986587;28;20022;-42
2021/01/18 10:08:16;;;;;;;26.63;13.68;;;5.30;98.60;;;;;;4982644;28;20046;-41
2021/01/18 10:10:48;;;;;;;22.83;12.88;;;5.40;98.60;;;;;;4984212;28;20037;-43
2021/01/18 10:13:17;;;;;;;28.85;14.48;;;5.40;98.50;;;;;;4983952;28;20030;-41
2021/01/18 10:15:43;;;;;;;27.20;13.30;;;5.40;98.50;;;;;;4986252;28;20022;-42
2021/01/18 10:18:27;;;;;;;31.30;13.40;;;5.40;98.50;;;;;;4986656;28;20462;-42
2021/01/18 10:20:56;;;;;;;24.88;13.73;;;5.40;98.60;;;;;;4983949;28;20030;-42
2021/01/18 10:23:22;;;;;;;29.48;12.88;;;5.40;98.50;;;;;;4986364;28;20057;-42
2021/01/18 10:25:47;;;;;;;21.50;12.55;;;5.50;98.60;;;;;;4986787;28;20019;-42
2021/01/18 10:28:20;;;;;;;26.23;13.80;;;5.50;98.50;;;;;;4987191;28;20068;-42
2021/01/18 10:30:46;;;;;;;24.23;12.95;;;5.60;98.50;;;;;;4986869;28;20030;-43
2021/01/18 10:33:19;;;;;;;25.60;12.93;;;5.60;98.50;;;;;;4985605;28;20034;-43
2021/01/18 10:35:46;;;;;;;28.15;15.02;;;5.60;98.40;;;;;;4987118;28;20034;-43
2021/01/18 10:38:25;;;;;;;29.20;14.45;;;5.60;98.40;;;;;;4986628;28;20435;-42
2021/01/18 10:41:01;;;;;;;31.70;15.55;;;5.60;98.30;;;;;;4986642;28;20031;-43
2021/01/18 10:43:28;;;;;;;28.70;14.65;;;5.70;98.20;;;;;;4966903;28;20117;-42
2021/01/18 10:45:54;;;;;;;29.95;14.77;;;5.70;98.30;;;;;;4982462;28;20030;-43
2021/01/18 10:48:34;;;;;;;24.92;15.32;;;5.60;98.30;;;;;;4985692;28;20505;-43
2021/01/18 10:51:04;;;;;;;28.98;14.68;;;5.70;98.30;;;;;;4986435;28;20019;-41
2021/01/18 10:53:32;;;;;;;28.92;14.90;;;5.70;98.30;;;;;;4986095;28;20034;-43
2021/01/18 10:56:12;;;;;;;28.70;17.17;;;5.70;98.30;;;;;;4986057;28;20034;-43
2021/01/18 10:58:39;;;;;;;27.80;15.52;;;5.80;98.20;;;;;;4986378;28;20064;-43
2021/01/18 11:01:11;;;;;;;23.35;15.27;;;5.80;98.20;;;;;;4985801;28;20069;-44
2021/01/18 11:03:38;;;;;;;24.85;15.15;;;5.80;98.20;;;;;;4986396;28;20144;-42
2021/01/18 11:06:11;;;;;;;28.20;14.98;;;5.80;98.10;;;;;;4985959;28;20374;-42
2021/01/18 11:08:37;;;;;;;27.15;15.52;;;5.90;98.10;;;;;;4985847;28;20034;-45
2021/01/18 11:11:26;;;;;;;32.65;16.30;;;5.80;98.00;;;;;;4986066;28;20394;-42
2021/01/18 11:14:03;;;;;;;24.65;15.05;;;5.90;98.10;;;;;;4986487;28;20026;-42
2021/01/18 11:16:29;;;;;;;24.65;14.60;;;5.90;98.10;;;;;;4985182;28;20027;-44
2021/01/18 11:19:00;;;;;;;24.55;13.65;;;5.90;98.00;;;;;;4986105;28;20051;-43
2021/01/18 11:21:26;;;;;;;21.85;14.18;;;6.00;98.00;;;;;;4985991;28;20034;-43
2021/01/18 11:23:55;;;;;;;23.77;14.50;;;6.00;98.00;;;;;;4983071;28;20053;-44
2021/01/18 11:26:21;;;;;;;26.33;15.43;;;6.00;97.90;;;;;;4985341;28;20022;-43
2021/01/18 11:28:47;;;;;;;26.17;14.68;;;6.00;98.00;;;;;;4986247;28;20502;-42
2021/01/18 11:31:15;;;;;;;31.08;15.40;;;6.00;97.70;;;;;;4985145;28;20041;-43
2021/01/18 11:33:41;;;;;;;26.55;15.05;;;6.00;97.60;;;;;;4975524;28;20132;-42
2021/01/18 11:36:07;;;;;;;22.83;13.45;;;6.00;97.60;;;;;;4985224;28;20072;-42
2021/01/18 11:38:33;;;;;;;25.38;13.50;;;6.00;97.60;;;;;;4985171;28;20053;-41
2021/01/18 11:40:58;;;;;;;19.63;12.38;;;6.00;97.60;;;;;;4985641;28;20133;-41
2021/01/18 11:43:24;;;;;;;30.27;14.45;;;6.00;97.60;;;;;;4983110;28;20081;-42
2021/01/18 11:45:50;;;;;;;27.50;12.70;;;6.00;97.60;;;;;;4986197;28;20022;-42
2021/01/18 11:48:16;;;;;;;22.60;13.15;;;6.00;97.60;;;;;;4984650;28;20089;-42
2021/01/18 11:50:42;;;;;;;20.27;12.30;;;6.00;97.60;;;;;;4985474;28;20038;-42
2021/01/18 11:53:09;;;;;;;20.85;12.10;;;6.10;97.60;;;;;;4984914;28;20037;-42
2021/01/18 11:55:34;;;;;;;22.67;10.52;;;6.10;97.70;;;;;;4985301;28;20192;-40
2021/01/18 11:58:00;;;;;;;21.73;11.10;;;6.10;97.70;;;;;;4985175;28;20069;-42
2021/01/18 12:00:29;;;;;;;23.20;12.35;;;6.10;97.60;;;;;;4985902;28;20053;-42
2021/01/18 12:02:56;;;;;;;21.38;11.48;;;6.10;97.40;;;;;;4985243;28;20104;-42
2021/01/18 12:05:26;;;;;;;25.10;10.68;;;6.20;97.40;;;;;;4984599;28;20026;-43
2021/01/18 12:07:53;;;;;;;23.63;11.30;;;6.20;97.50;;;;;;4985701;28;20109;-42
2021/01/18 12:10:18;;;;;;;19.88;10.05;;;6.20;97.40;;;;;;4984740;28;20091;-42
2021/01/18 12:12:44;;;;;;;18.10;9.38;;;6.30;97.40;;;;;;4984703;28;20086;-42
2021/01/18 12:15:10;;;;;;;19.00;9.90;;;6.30;97.30;;;;;;4984953;28;20556;-43
2021/01/18 12:17:37;;;;;;;23.50;10.68;;;6.30;97.40;;;;;;4985148;28;20089;-43
2021/01/18 12:20:04;;;;;;;18.73;9.65;;;6.30;97.50;;;;;;4984154;28;20042;-42
2021/01/18 12:22:29;;;;;;;21.05;10.20;;;6.40;97.20;;;;;;4984942;28;20160;-42
2021/01/18 12:24:55;;;;;;;19.17;9.55;;;6.40;97.20;;;;;;4985487;28;20564;-42
2021/01/18 12:27:20;;;;;;;22.60;9.23;;;6.40;97.20;;;;;;4984504;28;20041;-42
2021/01/18 12:29:49;;;;;;;16.52;9.40;;;6.40;97.10;;;;;;4985001;28;20036;-44
2021/01/18 12:32:14;;;;;;;19.95;9.40;;;6.40;97.10;;;;;;4984749;28;20094;-42
2021/01/18 12:34:40;;;;;;;14.93;8.18;;;6.40;97.10;;;;;;4984323;28;20050;-42
2021/01/18 12:37:05;;;;;;;16.00;8.20;;;6.50;97.10;;;;;;4984746;28;20402;-42
2021/01/18 12:39:31;;;;;;;17.58;8.05;;;6.50;97.10;;;;;;4984344;28;20015;-42
2021/01/18 12:41:56;;;;;;;18.38;8.57;;;6.40;97.00;;;;;;4985070;28;20200;-42
2021/01/18 12:44:22;;;;;;;16.85;7.90;;;6.50;97.00;;;;;;4983399;28;20508;-42
2021/01/18 12:46:49;;;;;;;20.77;8.60;;;6.50;97.00;;;;;;4984398;28;20382;-42
2021/01/18 12:49:18;;;;;;;19.20;7.85;;;6.50;97.00;;;;;;4984199;28;20030;-42
2021/01/18 12:51:48;;;;;;;18.30;8.52;;;6.50;97.00;;;;;;4984926;28;20058;-42
2021/01/18 12:54:14;;;;;;;18.60;8.55;;;6.50;96.90;;;;;;4983694;28;20026;-42
2021/01/18 12:56:39;;;;;;;23.15;8.30;;;6.60;96.90;;;;;;4986361;28;20591;-42
2021/01/18 12:59:05;;;;;;;18.55;8.35;;;6.60;97.00;;;;;;4988651;28;20049;-43
2021/01/18 13:01:32;;;;;;;15.65;8.00;;;6.70;96.80;;;;;;4987693;28;20447;-44